createdAt,value
2018-05-03T00:00:24.529Z,23.4
2018-05-03T00:01:14.671Z,23.4
2018-05-03T00:02:05.583Z,23.4
2018-05-03T00:02:54.751Z,23.4
2018-05-03T00:03:45.087Z,23.4
2018-05-03T00:04:34.346Z,23.4
2018-05-03T00:05:24.997Z,23.4
2018-05-03T00:06:15.275Z,23.4
2018-05-03T00:07:05.164Z,23.4
2018-05-03T00:07:54.684Z,23.4
2018-05-03T00:08:45.057Z,23.4
2018-05-03T00:09:34.755Z,23.4
2018-05-03T00:10:25.589Z,23.4
2018-05-03T00:11:14.138Z,23.4
2018-05-03T00:12:05.496Z,23.4
2018-05-03T00:12:55.556Z,23.4
2018-05-03T00:13:44.881Z,23.4
2018-05-03T00:14:35.445Z,23.4
2018-05-03T00:15:25.857Z,23.4
2018-05-03T00:16:15.858Z,23.4
2018-05-03T00:17:06.428Z,23.4
2018-05-03T00:17:56.427Z,23.4
2018-05-03T00:18:46.049Z,23.4
2018-05-03T00:19:36.303Z,23.4
2018-05-03T00:20:26.652Z,23.4
2018-05-03T00:21:16.706Z,23.4
2018-05-03T00:22:06.594Z,23.4
2018-05-03T00:22:56.024Z,23.4
2018-05-03T00:23:46.907Z,23.4
2018-05-03T00:24:36.497Z,23.4
2018-05-03T00:25:26.744Z,23.4
2018-05-03T00:26:16.245Z,23.4
2018-05-03T00:27:06.913Z,23.4
2018-05-03T00:27:55.910Z,23.4
2018-05-03T00:28:47.003Z,23.3
2018-05-03T00:29:37.173Z,23.4
2018-05-03T00:30:26.597Z,23.4
2018-05-03T00:31:16.938Z,23.4
2018-05-03T00:32:06.734Z,23.4
2018-05-03T00:32:57.667Z,23.4
2018-05-03T00:33:47.145Z,23.4
2018-05-03T00:34:36.694Z,23.4
2018-05-03T00:35:27.005Z,23.4
2018-05-03T00:36:17.695Z,23.4
2018-05-03T00:37:07.427Z,23.4
2018-05-03T00:37:57.245Z,23.4
2018-05-03T00:38:47.049Z,23.4
2018-05-03T00:39:36.812Z,23.4
2018-05-03T00:40:27.718Z,23.3
2018-05-03T00:41:17.238Z,23.3
2018-05-03T00:42:07.031Z,23.4
2018-05-03T00:42:57.918Z,23.3
2018-05-03T00:43:47.379Z,23.4
2018-05-03T00:44:38.033Z,23.3
2018-05-03T00:45:28.327Z,23.3
2018-05-03T00:46:17.824Z,23.3
2018-05-03T00:47:07.322Z,23.4
2018-05-03T00:47:58.511Z,23.3
2018-05-03T00:48:48.269Z,23.3
2018-05-03T00:49:38.643Z,23.3
2018-05-03T00:50:27.571Z,23.3
2018-05-03T00:51:17.691Z,23.3
2018-05-03T00:52:08.579Z,23.3
2018-05-03T00:52:58.900Z,23.3
2018-05-03T00:53:48.952Z,23.3
2018-05-03T00:54:37.895Z,23.3
2018-05-03T00:55:29.160Z,23.3
2018-05-03T00:56:18.972Z,23.3
2018-05-03T00:57:09.516Z,23.3
2018-05-03T00:57:58.725Z,23.3
2018-05-03T00:58:49.091Z,23.3
2018-05-03T00:59:39.763Z,23.3
2018-05-03T01:00:29.738Z,23.3
2018-05-03T01:01:19.843Z,23.3
2018-05-03T01:02:09.904Z,23.3
2018-05-03T01:02:59.139Z,23.3
2018-05-03T01:03:49.159Z,23.3
2018-05-03T01:04:39.797Z,23.3
2018-05-03T01:05:29.513Z,23.3
2018-05-03T01:06:19.710Z,23.3
2018-05-03T01:07:09.999Z,23.3
2018-05-03T01:07:59.484Z,23.3
2018-05-03T01:08:50.082Z,23.3
2018-05-03T01:09:40.470Z,23.3
2018-05-03T01:10:29.412Z,23.3
2018-05-03T01:11:20.035Z,23.3
2018-05-03T01:12:09.811Z,23.3
2018-05-03T01:12:59.925Z,23.3
2018-05-03T01:13:50.225Z,23.3
2018-05-03T01:14:39.736Z,23.3
2018-05-03T01:15:30.913Z,23.3
2018-05-03T01:16:19.335Z,23.3
2018-05-03T01:17:10.768Z,23.3
2018-05-03T01:18:00.562Z,23.3
2018-05-03T01:18:50.328Z,23.3
2018-05-03T01:19:40.526Z,23.3
2018-05-03T01:20:30.742Z,23.3
2018-05-03T01:21:21.128Z,23.3
2018-05-03T01:22:10.576Z,23.3
2018-05-03T01:23:00.652Z,23.3
2018-05-03T01:23:49.901Z,23.3
2018-05-03T01:24:41.139Z,23.3
2018-05-03T01:25:30.586Z,23.3
2018-05-03T01:26:21.502Z,23.3
2018-05-03T01:27:11.234Z,23.3
2018-05-03T01:28:01.061Z,23.3
2018-05-03T01:28:51.408Z,23.3
2018-05-03T01:29:41.443Z,23.3
2018-05-03T01:30:31.800Z,23.3
2018-05-03T01:31:22.161Z,23.2
2018-05-03T01:32:11.354Z,23.3
2018-05-03T01:33:02.108Z,23.3
2018-05-03T01:33:51.773Z,23.3
2018-05-03T01:34:40.491Z,23.3
2018-05-03T01:35:32.283Z,23.3
2018-05-03T01:36:22.280Z,23.3
2018-05-03T01:37:11.450Z,23.3
2018-05-03T01:38:01.836Z,23.3
2018-05-03T01:38:52.148Z,23.3
2018-05-03T01:39:41.961Z,23.3
2018-05-03T01:40:32.279Z,23.3
2018-05-03T01:41:21.795Z,23.3
2018-05-03T01:42:12.125Z,23.3
2018-05-03T01:43:01.935Z,23.3
2018-05-03T01:43:53.103Z,23.3
2018-05-03T01:44:42.612Z,23.3
2018-05-03T01:45:32.969Z,23.3
2018-05-03T01:46:22.740Z,23.3
2018-05-03T01:47:11.956Z,23.3
2018-05-03T01:48:02.613Z,23.3
2018-05-03T01:48:51.594Z,23.3
2018-05-03T01:49:42.480Z,23.3
2018-05-03T01:50:32.556Z,23.3
2018-05-03T01:51:22.169Z,23.3
2018-05-03T01:52:13.189Z,23.3
2018-05-03T01:53:03.518Z,23.3
2018-05-03T01:53:53.399Z,23.3
2018-05-03T01:54:43.650Z,23.3
2018-05-03T01:55:33.772Z,23.3
2018-05-03T01:56:23.273Z,23.3
2018-05-03T01:57:13.960Z,23.3
2018-05-03T01:58:03.679Z,23.3
2018-05-03T01:58:53.714Z,23.3
2018-05-03T01:59:43.608Z,23.3
2018-05-03T02:00:34.145Z,23.3
2018-05-03T02:01:23.405Z,23.3
2018-05-03T02:02:13.187Z,23.3
2018-05-03T02:03:03.499Z,23.3
2018-05-03T02:03:53.274Z,23.3
2018-05-03T02:04:43.915Z,23.3
2018-05-03T02:05:33.663Z,23.3
2018-05-03T02:06:24.596Z,23.3
2018-05-03T02:07:14.387Z,23.3
2018-05-03T02:08:04.466Z,23.3
2018-05-03T02:08:53.965Z,23.3
2018-05-03T02:09:43.734Z,23.3
2018-05-03T02:10:34.044Z,23.3
2018-05-03T02:11:24.731Z,23.3
2018-05-03T02:12:14.739Z,23.3
2018-05-03T02:13:05.104Z,23.3
2018-05-03T02:13:54.916Z,23.3
2018-05-03T02:14:45.507Z,23.3
2018-05-03T02:15:35.332Z,23.3
2018-05-03T02:16:24.542Z,23.3
2018-05-03T02:17:15.410Z,23.3
2018-05-03T02:18:05.550Z,23.3
2018-05-03T02:18:55.280Z,23.3
2018-05-03T02:19:45.628Z,23.3
2018-05-03T02:20:35.917Z,23.3
2018-05-03T02:21:25.993Z,23.2
2018-05-03T02:22:15.523Z,23.3
2018-05-03T02:23:06.104Z,23.3
2018-05-03T02:23:55.610Z,23.2
2018-05-03T02:24:46.248Z,23.3
2018-05-03T02:25:35.766Z,23.3
2018-05-03T02:26:26.384Z,23.3
2018-05-03T02:27:16.137Z,23.3
2018-05-03T02:28:05.732Z,23.3
2018-05-03T02:28:56.298Z,23.3
2018-05-03T02:29:46.085Z,23.3
2018-05-03T02:30:36.665Z,23.3
2018-05-03T02:31:25.662Z,23.3
2018-05-03T02:32:16.023Z,23.3
2018-05-03T02:33:05.796Z,23.3
2018-05-03T02:33:56.512Z,23.3
2018-05-03T02:34:46.548Z,23.3
2018-05-03T02:35:36.428Z,23.3
2018-05-03T02:36:26.245Z,23.3
2018-05-03T02:37:15.454Z,23.3
2018-05-03T02:38:06.107Z,23.3
2018-05-03T02:38:56.661Z,23.3
2018-05-03T02:39:46.401Z,23.3
2018-05-03T02:40:37.089Z,23.3
2018-05-03T02:41:26.571Z,23.3
2018-05-03T02:42:16.605Z,23.3
2018-05-03T02:43:06.415Z,23.3
2018-05-03T02:43:56.473Z,23.3
2018-05-03T02:44:45.661Z,23.3
2018-05-03T02:45:36.617Z,23.3
2018-05-03T02:46:26.873Z,23.3
2018-05-03T02:47:18.104Z,23.3
2018-05-03T02:48:07.106Z,23.3
2018-05-03T02:48:57.584Z,23.2
2018-05-03T02:49:48.027Z,23.2
2018-05-03T02:50:38.307Z,23.3
2018-05-03T02:51:27.508Z,23.3
2018-05-03T02:52:17.585Z,23.3
2018-05-03T02:53:08.235Z,23.3
2018-05-03T02:53:57.985Z,23.3
2018-05-03T02:54:48.109Z,23.3
2018-05-03T02:55:37.857Z,23.3
2018-05-03T02:56:28.200Z,23.2
2018-05-03T02:57:17.745Z,23.2
2018-05-03T02:58:07.698Z,23.2
2018-05-03T02:58:57.525Z,23.2
2018-05-03T02:59:48.188Z,23.3
2018-05-03T03:00:38.749Z,23.3
2018-05-03T03:01:29.203Z,23.2
2018-05-03T03:02:19.725Z,23.2
2018-05-03T03:03:08.703Z,23.2
2018-05-03T03:03:59.383Z,23.2
2018-05-03T03:04:48.832Z,23.2
2018-05-03T03:05:38.612Z,23.2
2018-05-03T03:06:29.227Z,23.2
2018-05-03T03:07:19.288Z,23.2
2018-05-03T03:08:09.602Z,23.2
2018-05-03T03:08:59.454Z,23.2
2018-05-03T03:09:50.403Z,23.2
2018-05-03T03:10:39.293Z,23.2
2018-05-03T03:11:29.054Z,23.2
2018-05-03T03:12:19.076Z,23.2
2018-05-03T03:13:09.956Z,23.2
2018-05-03T03:13:59.232Z,23.2
2018-05-03T03:14:50.112Z,23.3
2018-05-03T03:15:39.615Z,23.2
2018-05-03T03:16:30.215Z,23.2
2018-05-03T03:17:19.813Z,23.2
2018-05-03T03:18:09.579Z,23.2
2018-05-03T03:18:59.911Z,23.2
2018-05-03T03:19:49.737Z,23.2
2018-05-03T03:20:38.387Z,23.2
2018-05-03T03:21:29.667Z,23.2
2018-05-03T03:22:19.387Z,23.2
2018-05-03T03:23:10.242Z,23.2
2018-05-03T03:23:59.748Z,23.2
2018-05-03T03:24:50.870Z,23.2
2018-05-03T03:25:38.777Z,23.2
2018-05-03T03:26:28.875Z,23.2
2018-05-03T03:27:19.794Z,23.2
2018-05-03T03:28:09.878Z,23.2
2018-05-03T03:28:59.914Z,23.3
2018-05-03T03:29:49.440Z,23.2
2018-05-03T03:30:40.578Z,23.2
2018-05-03T03:31:30.452Z,23.2
2018-05-03T03:32:20.219Z,23.2
2018-05-03T03:33:11.232Z,23.2
2018-05-03T03:34:00.813Z,23.2
2018-05-03T03:34:50.624Z,23.2
2018-05-03T03:35:41.254Z,23.1
2018-05-03T03:36:30.356Z,23.2
2018-05-03T03:37:21.403Z,23.1
2018-05-03T03:38:11.124Z,23.1
2018-05-03T03:39:00.875Z,23.1
2018-05-03T03:39:50.704Z,23.1
2018-05-03T03:40:40.782Z,23.1
2018-05-03T03:41:31.370Z,23.1
2018-05-03T03:42:21.688Z,23.1
2018-05-03T03:43:11.826Z,23.1
2018-05-03T03:44:01.573Z,23.1
2018-05-03T03:44:52.385Z,23.1
2018-05-03T03:45:42.483Z,23.1
2018-05-03T03:46:32.583Z,23.1
2018-05-03T03:47:22.127Z,23.1
2018-05-03T03:48:12.405Z,23.1
2018-05-03T03:49:02.748Z,23.1
2018-05-03T03:49:52.516Z,23.1
2018-05-03T03:50:42.313Z,23.1
2018-05-03T03:51:32.615Z,23.1
2018-05-03T03:52:21.860Z,23.1
2018-05-03T03:53:13.241Z,23.1
2018-05-03T03:54:02.573Z,23.1
2018-05-03T03:54:52.616Z,23.1
2018-05-03T03:55:42.741Z,23.1
2018-05-03T03:56:32.489Z,23.1
2018-05-03T03:57:22.277Z,23.1
2018-05-03T03:58:13.192Z,23.1
2018-05-03T03:59:04.291Z,23.1
2018-05-03T03:59:52.784Z,23.1
2018-05-03T04:00:43.097Z,23.1
2018-05-03T04:01:33.182Z,23.1
2018-05-03T04:02:23.649Z,23.1
2018-05-03T04:03:12.757Z,23.1
2018-05-03T04:04:02.777Z,23.1
2018-05-03T04:04:53.166Z,23.1
2018-05-03T04:05:42.644Z,23.1
2018-05-03T04:06:33.780Z,23.1
2018-05-03T04:07:23.040Z,23.1
2018-05-03T04:08:13.469Z,23.1
2018-05-03T04:09:03.447Z,23.1
2018-05-03T04:09:54.065Z,23.1
2018-05-03T04:10:43.314Z,23.1
2018-05-03T04:11:33.692Z,23.1
2018-05-03T04:12:24.139Z,23.1
2018-05-03T04:13:14.426Z,23.1
2018-05-03T04:14:03.876Z,23.1
2018-05-03T04:14:54.443Z,23.1
2018-05-03T04:15:44.559Z,23.1
2018-05-03T04:16:34.615Z,23.1
2018-05-03T04:17:24.093Z,23.1
2018-05-03T04:18:14.470Z,23.1
2018-05-03T04:19:05.052Z,23.2
2018-05-03T04:19:54.027Z,23.1
2018-05-03T04:20:44.917Z,23.1
2018-05-03T04:21:35.293Z,23.1
2018-05-03T04:22:27.770Z,23.2
2018-05-03T04:23:15.151Z,23.1
2018-05-03T04:24:05.129Z,23.2
2018-05-03T04:24:55.455Z,23.2
2018-05-03T04:25:44.219Z,23.2
2018-05-03T04:26:35.634Z,23.1
2018-05-03T04:27:24.857Z,23.2
2018-05-03T04:28:15.231Z,23.2
2018-05-03T04:29:05.313Z,23.2
2018-05-03T04:29:55.638Z,23.2
2018-05-03T04:30:45.136Z,23.2
2018-05-03T04:31:34.633Z,23.2
2018-05-03T04:32:25.804Z,23.3
2018-05-03T04:33:15.301Z,23.3
2018-05-03T04:34:06.067Z,23.3
2018-05-03T04:34:55.458Z,23.3
2018-05-03T04:35:45.842Z,23.3
2018-05-03T04:36:35.897Z,23.3
2018-05-03T04:37:26.465Z,23.3
2018-05-03T04:38:14.978Z,23.3
2018-05-03T04:39:05.806Z,23.3
2018-05-03T04:39:56.667Z,23.3
2018-05-03T04:40:45.846Z,23.3
2018-05-03T04:41:36.765Z,23.3
2018-05-03T04:42:26.612Z,23.3
2018-05-03T04:43:16.614Z,23.3
2018-05-03T04:44:06.989Z,23.3
2018-05-03T04:44:56.785Z,23.3
2018-05-03T04:45:46.546Z,23.3
2018-05-03T04:46:37.190Z,23.3
2018-05-03T04:47:27.328Z,23.3
2018-05-03T04:48:17.021Z,23.3
2018-05-03T04:49:06.515Z,23.3
2018-05-03T04:49:57.175Z,23.3
2018-05-03T04:50:47.199Z,23.3
2018-05-03T04:51:37.541Z,23.3
2018-05-03T04:52:26.802Z,23.3
2018-05-03T04:53:17.431Z,23.3
2018-05-03T04:54:07.834Z,23.3
2018-05-03T04:54:57.269Z,23.3
2018-05-03T04:55:47.353Z,23.3
2018-05-03T04:56:37.659Z,23.3
2018-05-03T04:57:27.829Z,23.3
2018-05-03T04:58:18.042Z,23.3
2018-05-03T04:59:08.081Z,23.3
2018-05-03T04:59:57.894Z,23.3
2018-05-03T05:00:48.255Z,23.3
2018-05-03T05:01:38.063Z,23.3
2018-05-03T05:02:28.206Z,23.3
2018-05-03T05:03:17.582Z,23.3
2018-05-03T05:04:07.949Z,23.3
2018-05-03T05:04:58.049Z,23.3
2018-05-03T05:05:48.617Z,23.3
2018-05-03T05:06:38.156Z,23.3
2018-05-03T05:07:28.237Z,23.3
2018-05-03T05:08:18.293Z,23.3
2018-05-03T05:09:08.720Z,23.3
2018-05-03T05:09:58.217Z,23.3
2018-05-03T05:10:49.054Z,23.3
2018-05-03T05:11:38.888Z,23.3
2018-05-03T05:12:28.602Z,23.3
2018-05-03T05:13:18.945Z,23.3
2018-05-03T05:14:08.160Z,23.3
2018-05-03T05:14:59.061Z,23.3
2018-05-03T05:15:49.172Z,23.3
2018-05-03T05:16:39.197Z,23.3
2018-05-03T05:17:29.612Z,23.3
2018-05-03T05:18:18.727Z,23.4
2018-05-03T05:19:09.134Z,23.3
2018-05-03T05:19:59.427Z,23.4
2018-05-03T05:20:49.496Z,23.4
2018-05-03T05:21:39.581Z,23.4
2018-05-03T05:22:29.592Z,23.4
2018-05-03T05:23:20.091Z,23.4
2018-05-03T05:24:09.315Z,23.4
2018-05-03T05:25:00.173Z,23.4
2018-05-03T05:25:49.401Z,23.4
2018-05-03T05:26:39.688Z,23.4
2018-05-03T05:27:30.036Z,23.4
2018-05-03T05:28:20.312Z,23.4
2018-05-03T05:29:09.720Z,23.4
2018-05-03T05:30:00.500Z,23.4
2018-05-03T05:30:51.711Z,23.5
2018-05-03T05:31:40.330Z,23.4
2018-05-03T05:32:29.888Z,23.5
2018-05-03T05:33:20.476Z,23.4
2018-05-03T05:34:09.984Z,23.5
2018-05-03T05:35:00.080Z,23.5
2018-05-03T05:35:50.385Z,23.5
2018-05-03T05:36:40.440Z,23.5
2018-05-03T05:37:30.807Z,23.5
2018-05-03T05:38:20.870Z,23.6
2018-05-03T05:39:11.026Z,23.6
2018-05-03T05:40:01.067Z,23.6
2018-05-03T05:40:50.542Z,23.6
2018-05-03T05:41:41.399Z,23.6
2018-05-03T05:42:30.988Z,23.6
2018-05-03T05:43:21.293Z,23.6
2018-05-03T05:44:10.795Z,23.6
2018-05-03T05:45:01.112Z,23.6
2018-05-03T05:45:51.508Z,23.6
2018-05-03T05:46:41.814Z,23.6
2018-05-03T05:47:31.834Z,23.6
2018-05-03T05:48:21.205Z,23.6
2018-05-03T05:49:11.726Z,23.6
2018-05-03T05:50:01.810Z,23.7
2018-05-03T05:50:51.288Z,23.6
2018-05-03T05:51:41.363Z,23.6
2018-05-03T05:52:31.154Z,23.6
2018-05-03T05:53:21.942Z,23.7
2018-05-03T05:54:12.462Z,23.6
2018-05-03T05:55:01.704Z,23.6
2018-05-03T05:55:51.948Z,23.6
2018-05-03T05:56:43.173Z,23.7
2018-05-03T05:57:32.373Z,23.7
2018-05-03T05:58:22.748Z,23.8
2018-05-03T05:59:12.583Z,23.7
2018-05-03T06:00:02.347Z,23.6
2018-05-03T06:00:51.890Z,23.7
2018-05-03T06:01:42.490Z,23.7
2018-05-03T06:02:32.510Z,23.7
2018-05-03T06:03:22.048Z,23.7
2018-05-03T06:04:12.686Z,23.7
2018-05-03T06:05:02.517Z,23.7
2018-05-03T06:05:52.751Z,23.8
2018-05-03T06:06:43.103Z,23.7
2018-05-03T06:07:32.920Z,23.8
2018-05-03T06:08:22.963Z,23.7
2018-05-03T06:09:13.040Z,23.7
2018-05-03T06:10:03.262Z,23.8
2018-05-03T06:10:53.381Z,23.7
2018-05-03T06:11:43.208Z,23.7
2018-05-03T06:12:33.362Z,23.8
2018-05-03T06:13:23.091Z,23.8
2018-05-03T06:14:13.952Z,23.7
2018-05-03T06:15:03.214Z,23.7
2018-05-03T06:15:54.065Z,23.7
2018-05-03T06:16:43.057Z,23.8
2018-05-03T06:17:33.929Z,23.8
2018-05-03T06:18:23.969Z,23.8
2018-05-03T06:19:14.091Z,23.8
2018-05-03T06:20:04.158Z,23.7
2018-05-03T06:20:54.242Z,23.7
2018-05-03T06:21:44.045Z,23.8
2018-05-03T06:22:33.781Z,23.8
2018-05-03T06:23:23.369Z,23.8
2018-05-03T06:24:14.186Z,23.8
2018-05-03T06:25:04.843Z,23.8
2018-05-03T06:25:54.927Z,23.7
2018-05-03T06:26:44.807Z,23.8
2018-05-03T06:27:34.772Z,23.8
2018-05-03T06:28:23.490Z,23.8
2018-05-03T06:29:13.888Z,23.8
2018-05-03T06:30:05.155Z,23.8
2018-05-03T06:30:54.400Z,23.8
2018-05-03T06:31:44.790Z,23.8
2018-05-03T06:32:35.175Z,23.8
2018-05-03T06:33:24.098Z,23.8
2018-05-03T06:34:14.996Z,23.8
2018-05-03T06:35:05.065Z,23.9
2018-05-03T06:35:55.110Z,23.8
2018-05-03T06:36:45.671Z,23.8
2018-05-03T06:37:35.794Z,23.8
2018-05-03T06:38:25.295Z,23.9
2018-05-03T06:39:15.730Z,23.8
2018-05-03T06:40:05.142Z,23.8
2018-05-03T06:40:55.533Z,23.8
2018-05-03T06:41:45.539Z,23.9
2018-05-03T06:42:36.257Z,23.8
2018-05-03T06:43:25.459Z,23.9
2018-05-03T06:44:16.296Z,23.9
2018-05-03T06:45:06.115Z,23.9
2018-05-03T06:45:55.917Z,23.9
2018-05-03T06:46:45.181Z,23.9
2018-05-03T06:47:35.738Z,23.9
2018-05-03T06:48:26.760Z,23.9
2018-05-03T06:49:14.550Z,23.9
2018-05-03T06:50:05.457Z,23.9
2018-05-03T06:50:55.248Z,23.9
2018-05-03T06:51:45.257Z,23.9
2018-05-03T06:52:35.132Z,23.9
2018-05-03T06:53:26.469Z,23.9
2018-05-03T06:54:16.628Z,23.9
2018-05-03T06:55:06.637Z,23.9
2018-05-03T06:55:56.424Z,23.9
2018-05-03T06:56:46.758Z,23.9
2018-05-03T06:57:37.350Z,23.9
2018-05-03T06:58:26.020Z,23.9
2018-05-03T06:59:17.492Z,23.9
2018-05-03T07:00:06.809Z,23.9
2018-05-03T07:00:57.322Z,23.9
2018-05-03T07:01:47.721Z,23.9
2018-05-03T07:02:37.459Z,23.9
2018-05-03T07:03:27.069Z,23.9
2018-05-03T07:04:20.021Z,23.9
2018-05-03T07:05:07.679Z,23.9
2018-05-03T07:05:57.456Z,23.9
2018-05-03T07:06:47.540Z,23.9
2018-05-03T07:07:37.059Z,23.9
2018-05-03T07:08:27.387Z,23.9
2018-05-03T07:09:18.041Z,23.9
2018-05-03T07:10:07.419Z,23.9
2018-05-03T07:10:57.385Z,23.9
2018-05-03T07:11:47.697Z,23.9
2018-05-03T07:12:37.826Z,23.9
2018-05-03T07:13:28.329Z,23.9
2018-05-03T07:14:17.402Z,23.9
2018-05-03T07:15:08.152Z,23.9
2018-05-03T07:15:58.396Z,23.9
2018-05-03T07:16:48.659Z,23.9
2018-05-03T07:17:37.543Z,23.9
2018-05-03T07:18:28.219Z,23.9
2018-05-03T07:19:18.291Z,24
2018-05-03T07:20:08.317Z,23.9
2018-05-03T07:20:58.108Z,23.9
2018-05-03T07:21:48.224Z,23.9
2018-05-03T07:22:39.435Z,23.9
2018-05-03T07:23:28.565Z,23.9
2018-05-03T07:24:18.917Z,23.9
2018-05-03T07:25:08.233Z,23.9
2018-05-03T07:25:59.340Z,24
2018-05-03T07:26:49.499Z,23.9
2018-05-03T07:27:39.347Z,23.9
2018-05-03T07:28:28.987Z,23.9
2018-05-03T07:29:19.180Z,23.9
2018-05-03T07:30:09.401Z,24
2018-05-03T07:30:59.648Z,23.9
2018-05-03T07:31:49.474Z,23.9
2018-05-03T07:32:39.624Z,23.9
2018-05-03T07:33:30.287Z,24
2018-05-03T07:34:19.991Z,24
2018-05-03T07:35:09.784Z,24
2018-05-03T07:36:00.208Z,24
2018-05-03T07:36:50.152Z,24
2018-05-03T07:37:40.228Z,23.9
2018-05-03T07:38:30.603Z,23.9
2018-05-03T07:39:19.632Z,24.2
2018-05-03T07:40:10.447Z,24.3
2018-05-03T07:41:02.365Z,24.2
2018-05-03T07:41:50.198Z,24.1
2018-05-03T07:42:40.699Z,24
2018-05-03T07:43:30.562Z,24
2018-05-03T07:44:20.041Z,23.9
2018-05-03T07:45:10.323Z,24
2018-05-03T07:46:00.754Z,23.9
2018-05-03T07:46:50.445Z,23.9
2018-05-03T07:47:40.783Z,23.9
2018-05-03T07:48:30.137Z,23.9
2018-05-03T07:49:19.943Z,24
2018-05-03T07:50:10.546Z,24
2018-05-03T07:51:00.569Z,24
2018-05-03T07:51:50.406Z,23.9
2018-05-03T07:52:40.500Z,24
2018-05-03T07:53:29.241Z,24
2018-05-03T07:54:20.091Z,24
2018-05-03T07:55:11.092Z,24
2018-05-03T07:56:00.658Z,24
2018-05-03T07:56:50.905Z,24
2018-05-03T07:57:40.639Z,24
2018-05-03T07:58:29.812Z,24
2018-05-03T07:59:20.350Z,24
2018-05-03T08:00:10.034Z,24
2018-05-03T08:01:00.498Z,24.1
2018-05-03T08:01:51.213Z,24.1
2018-05-03T08:02:41.237Z,24.1
2018-05-03T08:03:31.337Z,24
2018-05-03T08:04:20.834Z,24.1
2018-05-03T08:05:12.164Z,24.1
2018-05-03T08:06:01.985Z,24.1
2018-05-03T08:06:52.262Z,24.1
2018-05-03T08:07:41.540Z,24.1
2018-05-03T08:08:31.616Z,24.1
2018-05-03T08:09:22.243Z,24.1
2018-05-03T08:10:12.127Z,24.1
2018-05-03T08:11:03.898Z,24.1
2018-05-03T08:11:51.770Z,24.1
2018-05-03T08:12:43.681Z,24.1
2018-05-03T08:13:32.813Z,24.1
2018-05-03T08:14:22.924Z,24.1
2018-05-03T08:15:13.209Z,24.1
2018-05-03T08:16:03.657Z,24.1
2018-05-03T08:16:53.407Z,24.1
2018-05-03T08:17:42.865Z,24.1
2018-05-03T08:18:33.232Z,24.1
2018-05-03T08:19:22.979Z,24.1
2018-05-03T08:20:13.404Z,24.1
2018-05-03T08:21:03.368Z,24.1
2018-05-03T08:21:53.997Z,24.1
2018-05-03T08:22:42.710Z,24.1
2018-05-03T08:23:33.019Z,24.1
2018-05-03T08:24:23.900Z,24.1
2018-05-03T08:25:13.441Z,24.1
2018-05-03T08:26:03.232Z,24.1
2018-05-03T08:26:53.865Z,24.2
2018-05-03T08:27:43.152Z,24.1
2018-05-03T08:28:35.047Z,24.1
2018-05-03T08:29:23.509Z,24.1
2018-05-03T08:30:13.543Z,24.1
2018-05-03T08:31:04.239Z,24.2
2018-05-03T08:31:54.371Z,24.2
2018-05-03T08:32:44.902Z,24.2
2018-05-03T08:33:34.919Z,24.1
2018-05-03T08:34:25.031Z,24.1
2018-05-03T08:35:14.208Z,24.3
2018-05-03T08:36:04.299Z,24.2
2018-05-03T08:36:55.191Z,24.2
2018-05-03T08:37:44.139Z,24.1
2018-05-03T08:38:35.026Z,24.2
2018-05-03T08:39:25.262Z,24.2
2018-05-03T08:40:14.928Z,24.3
2018-05-03T08:41:04.795Z,24.3
2018-05-03T08:41:55.297Z,24.3
2018-05-03T08:42:45.564Z,24.3
2018-05-03T08:43:35.414Z,24.3
2018-05-03T08:44:25.517Z,24.3
2018-05-03T08:45:15.838Z,24.3
2018-05-03T08:46:05.165Z,24.2
2018-05-03T08:46:55.961Z,24.2
2018-05-03T08:47:44.931Z,24.3
2018-05-03T08:48:35.564Z,24.4
2018-05-03T08:49:25.745Z,24.4
2018-05-03T08:50:15.414Z,24.4
2018-05-03T08:51:05.199Z,24.4
2018-05-03T08:51:55.343Z,24.5
2018-05-03T08:52:46.546Z,24.4
2018-05-03T08:53:36.239Z,24.3
2018-05-03T08:54:26.591Z,24.3
2018-05-03T08:55:16.348Z,24.3
2018-05-03T08:56:05.578Z,24.4
2018-05-03T08:56:56.023Z,24.3
2018-05-03T08:57:46.621Z,24.3
2018-05-03T08:58:36.641Z,24.3
2018-05-03T08:59:26.956Z,24.4
2018-05-03T09:00:16.793Z,24.5
2018-05-03T09:01:06.826Z,24.4
2018-05-03T09:01:58.396Z,24.3
2018-05-03T09:02:46.999Z,24.4
2018-05-03T09:03:37.341Z,24.4
2018-05-03T09:04:26.123Z,24.4
2018-05-03T09:05:17.373Z,24.5
2018-05-03T09:06:07.222Z,24.6
2018-05-03T09:06:57.008Z,24.4
2018-05-03T09:07:49.090Z,24.4
2018-05-03T09:08:37.413Z,24.4
2018-05-03T09:09:27.516Z,24.4
2018-05-03T09:10:16.707Z,24.3
2018-05-03T09:11:07.668Z,24.3
2018-05-03T09:11:57.720Z,24.3
2018-05-03T09:12:47.758Z,24.3
2018-05-03T09:13:37.838Z,24.4
2018-05-03T09:14:27.632Z,24.4
2018-05-03T09:15:17.682Z,24.4
2018-05-03T09:16:07.198Z,24.4
2018-05-03T09:16:57.832Z,24.4
2018-05-03T09:17:48.164Z,24.4
2018-05-03T09:18:38.213Z,24.4
2018-05-03T09:19:28.316Z,24.3
2018-05-03T09:20:16.908Z,24.3
2018-05-03T09:21:08.436Z,24.3
2018-05-03T09:21:57.382Z,24.4
2018-05-03T09:22:48.290Z,24.4
2018-05-03T09:23:38.996Z,24.4
2018-05-03T09:24:29.041Z,24.4
2018-05-03T09:25:18.751Z,24.4
2018-05-03T09:26:08.289Z,24.3
2018-05-03T09:26:58.821Z,24.4
2018-05-03T09:27:48.668Z,24.3
2018-05-03T09:28:38.734Z,24.3
2018-05-03T09:29:28.641Z,24.3
2018-05-03T09:30:18.396Z,24.3
2018-05-03T09:31:09.211Z,24.4
2018-05-03T09:31:57.833Z,24.4
2018-05-03T09:32:47.762Z,24.4
2018-05-03T09:33:38.406Z,24.5
2018-05-03T09:34:27.411Z,24.5
2018-05-03T09:35:18.761Z,24.6
2018-05-03T09:36:08.861Z,24.6
2018-05-03T09:36:59.032Z,24.5
2018-05-03T09:37:48.537Z,24.5
2018-05-03T09:38:39.281Z,24.5
2018-05-03T09:39:29.029Z,24.5
2018-05-03T09:40:20.005Z,24.4
2018-05-03T09:41:10.311Z,24.5
2018-05-03T09:42:00.326Z,24.5
2018-05-03T09:42:50.162Z,24.6
2018-05-03T09:43:39.656Z,24.6
2018-05-03T09:44:29.544Z,24.6
2018-05-03T09:45:20.096Z,24.6
2018-05-03T09:46:09.948Z,24.6
2018-05-03T09:47:00.507Z,24.6
2018-05-03T09:47:50.295Z,24.5
2018-05-03T09:48:40.907Z,24.5
2018-05-03T09:49:30.423Z,24.5
2018-05-03T09:50:20.792Z,24.5
2018-05-03T09:51:10.260Z,24.6
2018-05-03T09:52:00.624Z,24.6
2018-05-03T09:52:50.744Z,24.6
2018-05-03T09:53:40.485Z,24.6
2018-05-03T09:54:30.811Z,24.6
2018-05-03T09:55:20.312Z,24.6
2018-05-03T09:56:10.655Z,24.6
2018-05-03T09:57:00.158Z,24.6
2018-05-03T09:57:51.054Z,24.6
2018-05-03T09:58:41.418Z,24.6
2018-05-03T09:59:33.222Z,24.6
2018-05-03T10:00:21.991Z,24.7
2018-05-03T10:01:11.622Z,24.6
2018-05-03T10:02:01.190Z,24.6
2018-05-03T10:02:50.899Z,24.7
2018-05-03T10:03:41.567Z,24.7
2018-05-03T10:04:31.325Z,24.7
2018-05-03T10:05:21.632Z,24.8
2018-05-03T10:06:12.361Z,24.7
2018-05-03T10:07:02.071Z,24.7
2018-05-03T10:07:51.302Z,24.7
2018-05-03T10:08:41.952Z,24.7
2018-05-03T10:09:31.426Z,24.6
2018-05-03T10:10:22.068Z,24.6
2018-05-03T10:11:12.132Z,24.6
2018-05-03T10:12:01.376Z,24.6
2018-05-03T10:12:52.076Z,24.6
2018-05-03T10:13:42.341Z,24.6
2018-05-03T10:14:32.711Z,24.6
2018-05-03T10:15:22.454Z,24.6
2018-05-03T10:16:12.579Z,24.6
2018-05-03T10:17:02.048Z,24.6
2018-05-03T10:17:53.226Z,24.6
2018-05-03T10:18:41.931Z,24.6
2018-05-03T10:19:31.763Z,24.6
2018-05-03T10:20:22.564Z,24.6
2018-05-03T10:21:11.331Z,24.6
2018-05-03T10:22:02.337Z,24.6
2018-05-03T10:22:52.380Z,24.6
2018-05-03T10:23:42.113Z,24.6
2018-05-03T10:24:31.330Z,24.6
2018-05-03T10:25:22.416Z,24.6
2018-05-03T10:26:12.240Z,24.6
2018-05-03T10:27:03.655Z,24.6
2018-05-03T10:27:52.969Z,24.6
2018-05-03T10:28:43.579Z,24.6
2018-05-03T10:29:33.165Z,24.6
2018-05-03T10:30:24.607Z,24.6
2018-05-03T10:31:13.405Z,24.6
2018-05-03T10:32:04.336Z,24.6
2018-05-03T10:32:53.947Z,24.6
2018-05-03T10:33:43.907Z,24.6
2018-05-03T10:34:34.242Z,24.6
2018-05-03T10:35:23.801Z,24.6
2018-05-03T10:36:16.299Z,24.6
2018-05-03T10:37:04.338Z,24.6
2018-05-03T10:37:54.845Z,24.6
2018-05-03T10:38:44.016Z,24.6
2018-05-03T10:39:34.657Z,24.6
2018-05-03T10:40:24.743Z,24.6
2018-05-03T10:41:14.494Z,24.6
2018-05-03T10:42:06.883Z,24.6
2018-05-03T10:42:54.921Z,24.6
2018-05-03T10:43:44.392Z,24.6
2018-05-03T10:44:34.490Z,24.6
2018-05-03T10:45:24.346Z,24.6
2018-05-03T10:46:15.172Z,24.6
2018-05-03T10:47:05.308Z,24.6
2018-05-03T10:47:55.588Z,24.6
2018-05-03T10:48:45.987Z,24.6
2018-05-03T10:49:34.391Z,24.6
2018-05-03T10:50:24.916Z,24.6
2018-05-03T10:51:15.115Z,24.6
2018-05-03T10:52:05.650Z,24.6
2018-05-03T10:52:55.163Z,24.6
2018-05-03T10:53:46.070Z,24.6
2018-05-03T10:54:35.552Z,24.6
2018-05-03T10:55:26.114Z,24.6
2018-05-03T10:56:15.994Z,24.6
2018-05-03T10:57:06.362Z,24.6
2018-05-03T10:57:56.056Z,24.6
2018-05-03T10:58:45.901Z,24.6
2018-05-03T10:59:36.266Z,24.6
2018-05-03T11:00:26.041Z,24.6
2018-05-03T11:01:15.639Z,24.6
2018-05-03T11:02:06.445Z,24.6
2018-05-03T11:02:56.271Z,24.6
2018-05-03T11:03:46.346Z,24.6
2018-05-03T11:04:36.638Z,24.6
2018-05-03T11:05:29.490Z,24.6
2018-05-03T11:06:15.999Z,24.6
2018-05-03T11:07:06.568Z,24.6
2018-05-03T11:07:55.781Z,24.6